sensor_id;sensor_type;location;lat;lon;timestamp;P1;durP1;ratioP1;P2;durP2;ratioP2
16117;SDS011;8163;50.118;5.342;2023-02-15T00:01:35;30.38;;;16.17;;
16117;SDS011;8163;50.118;5.342;2023-02-15T00:04:03;30.42;;;15.13;;
16117;SDS011;8163;50.118;5.342;2023-02-15T00:06:30;24.33;;;14.70;;
16117;SDS011;8163;50.118;5.342;2023-02-15T00:08:57;32.15;;;17.83;;
16117;SDS011;8163;50.118;5.342;2023-02-15T00:11:27;26.48;;;15.98;;
16117;SDS011;8163;50.118;5.342;2023-02-15T00:14:08;27.30;;;16.75;;
16117;SDS011;8163;50.118;5.342;2023-02-15T00:16:37;29.13;;;16.42;;
16117;SDS011;8163;50.118;5.342;2023-02-15T00:19:05;26.75;;;16.40;;
16117;SDS011;8163;50.118;5.342;2023-02-15T00:21:33;25.65;;;15.27;;
16117;SDS011;8163;50.118;5.342;2023-02-15T00:24:02;31.63;;;17.45;;
16117;SDS011;8163;50.118;5.342;2023-02-15T00:26:32;27.85;;;16.85;;
16117;SDS011;8163;50.118;5.342;2023-02-15T00:28:59;26.90;;;15.40;;
16117;SDS011;8163;50.118;5.342;2023-02-15T00:31:27;27.75;;;15.30;;
16117;SDS011;8163;50.118;5.342;2023-02-15T00:33:55;32.08;;;17.00;;
16117;SDS011;8163;50.118;5.342;2023-02-15T00:36:26;25.80;;;16.67;;
16117;SDS011;8163;50.118;5.342;2023-02-15T00:38:53;26.80;;;16.85;;
16117;SDS011;8163;50.118;5.342;2023-02-15T00:41:21;26.20;;;16.00;;
16117;SDS011;8163;50.118;5.342;2023-02-15T00:43:50;27.10;;;16.50;;
16117;SDS011;8163;50.118;5.342;2023-02-15T00:46:17;26.20;;;17.27;;
16117;SDS011;8163;50.118;5.342;2023-02-15T00:48:44;31.48;;;17.70;;
16117;SDS011;8163;50.118;5.342;2023-02-15T00:51:11;31.67;;;18.63;;
16117;SDS011;8163;50.118;5.342;2023-02-15T00:53:38;31.42;;;18.98;;
16117;SDS011;8163;50.118;5.342;2023-02-15T00:56:05;30.00;;;19.00;;
16117;SDS011;8163;50.118;5.342;2023-02-15T00:58:32;30.20;;;18.80;;
16117;SDS011;8163;50.118;5.342;2023-02-15T01:01:03;35.03;;;19.83;;
16117;SDS011;8163;50.118;5.342;2023-02-15T01:03:33;29.98;;;18.67;;
16117;SDS011;8163;50.118;5.342;2023-02-15T01:06:03;31.58;;;18.55;;
16117;SDS011;8163;50.118;5.342;2023-02-15T01:08:31;31.95;;;17.55;;
16117;SDS011;8163;50.118;5.342;2023-02-15T01:11:02;31.02;;;17.85;;
16117;SDS011;8163;50.118;5.342;2023-02-15T01:13:30;31.40;;;17.88;;
16117;SDS011;8163;50.118;5.342;2023-02-15T01:15:57;27.02;;;15.90;;
16117;SDS011;8163;50.118;5.342;2023-02-15T01:18:28;31.75;;;17.23;;
16117;SDS011;8163;50.118;5.342;2023-02-15T01:20:55;30.15;;;18.15;;
16117;SDS011;8163;50.118;5.342;2023-02-15T01:23:23;32.80;;;18.92;;
16117;SDS011;8163;50.118;5.342;2023-02-15T01:25:50;32.63;;;17.75;;
16117;SDS011;8163;50.118;5.342;2023-02-15T01:28:17;36.58;;;17.38;;
16117;SDS011;8163;50.118;5.342;2023-02-15T01:30:44;30.45;;;16.33;;
16117;SDS011;8163;50.118;5.342;2023-02-15T01:33:11;29.08;;;17.73;;
16117;SDS011;8163;50.118;5.342;2023-02-15T01:35:44;36.55;;;18.67;;
16117;SDS011;8163;50.118;5.342;2023-02-15T01:38:13;34.88;;;17.48;;
16117;SDS011;8163;50.118;5.342;2023-02-15T01:40:40;28.70;;;16.60;;
16117;SDS011;8163;50.118;5.342;2023-02-15T01:43:09;28.15;;;16.60;;
16117;SDS011;8163;50.118;5.342;2023-02-15T01:45:36;29.02;;;17.25;;
16117;SDS011;8163;50.118;5.342;2023-02-15T01:48:05;31.58;;;16.70;;
16117;SDS011;8163;50.118;5.342;2023-02-15T01:50:39;30.60;;;15.85;;
16117;SDS011;8163;50.118;5.342;2023-02-15T01:53:15;35.47;;;16.67;;
16117;SDS011;8163;50.118;5.342;2023-02-15T01:55:47;31.98;;;16.25;;
16117;SDS011;8163;50.118;5.342;2023-02-15T01:58:20;24.48;;;15.13;;
16117;SDS011;8163;50.118;5.342;2023-02-15T02:00:48;25.75;;;15.52;;
16117;SDS011;8163;50.118;5.342;2023-02-15T02:03:16;26.58;;;15.35;;
16117;SDS011;8163;50.118;5.342;2023-02-15T02:05:44;31.08;;;16.67;;
16117;SDS011;8163;50.118;5.342;2023-02-15T02:08:11;26.65;;;14.90;;
16117;SDS011;8163;50.118;5.342;2023-02-15T02:10:39;25.48;;;14.30;;
16117;SDS011;8163;50.118;5.342;2023-02-15T02:13:06;25.27;;;14.57;;
16117;SDS011;8163;50.118;5.342;2023-02-15T02:15:37;26.00;;;15.35;;
16117;SDS011;8163;50.118;5.342;2023-02-15T02:18:13;25.52;;;14.38;;
16117;SDS011;8163;50.118;5.342;2023-02-15T02:27:22;32.28;;;14.50;;
16117;SDS011;8163;50.118;5.342;2023-02-15T02:30:16;23.73;;;14.23;;
16117;SDS011;8163;50.118;5.342;2023-02-15T02:33:14;24.42;;;13.77;;
16117;SDS011;8163;50.118;5.342;2023-02-15T02:36:08;24.83;;;13.40;;
16117;SDS011;8163;50.118;5.342;2023-02-15T02:38:52;29.58;;;14.48;;
16117;SDS011;8163;50.118;5.342;2023-02-15T02:41:30;27.10;;;14.55;;
16117;SDS011;8163;50.118;5.342;2023-02-15T02:44:07;28.25;;;14.48;;
16117;SDS011;8163;50.118;5.342;2023-02-15T02:46:43;23.33;;;13.57;;
16117;SDS011;8163;50.118;5.342;2023-02-15T02:49:20;24.67;;;13.40;;
16117;SDS011;8163;50.118;5.342;2023-02-15T02:51:58;23.77;;;13.98;;
16117;SDS011;8163;50.118;5.342;2023-02-15T02:54:27;23.75;;;13.52;;
16117;SDS011;8163;50.118;5.342;2023-02-15T02:56:55;24.80;;;13.90;;
16117;SDS011;8163;50.118;5.342;2023-02-15T02:59:27;21.70;;;13.18;;
16117;SDS011;8163;50.118;5.342;2023-02-15T03:01:59;24.50;;;13.10;;
16117;SDS011;8163;50.118;5.342;2023-02-15T03:04:35;21.27;;;11.77;;
16117;SDS011;8163;50.118;5.342;2023-02-15T03:07:05;23.70;;;12.55;;
16117;SDS011;8163;50.118;5.342;2023-02-15T03:09:36;23.50;;;11.57;;
16117;SDS011;8163;50.118;5.342;2023-02-15T03:14:39;20.42;;;10.95;;
16117;SDS011;8163;50.118;5.342;2023-02-15T03:17:08;20.75;;;10.73;;
16117;SDS011;8163;50.118;5.342;2023-02-15T03:19:38;24.35;;;11.35;;
16117;SDS011;8163;50.118;5.342;2023-02-15T03:22:07;19.02;;;10.15;;
16117;SDS011;8163;50.118;5.342;2023-02-15T03:24:40;24.00;;;11.00;;
16117;SDS011;8163;50.118;5.342;2023-02-15T03:27:11;23.63;;;11.27;;
16117;SDS011;8163;50.118;5.342;2023-02-15T03:29:44;19.92;;;10.48;;
16117;SDS011;8163;50.118;5.342;2023-02-15T03:32:12;22.13;;;12.10;;
16117;SDS011;8163;50.118;5.342;2023-02-15T03:34:43;25.73;;;11.20;;
16117;SDS011;8163;50.118;5.342;2023-02-15T03:37:10;23.20;;;10.68;;
16117;SDS011;8163;50.118;5.342;2023-02-15T03:39:47;19.73;;;9.77;;
16117;SDS011;8163;50.118;5.342;2023-02-15T03:44:59;21.77;;;9.88;;
16117;SDS011;8163;50.118;5.342;2023-02-15T03:47:30;19.95;;;10.50;;
16117;SDS011;8163;50.118;5.342;2023-02-15T03:50:01;18.92;;;9.98;;
16117;SDS011;8163;50.118;5.342;2023-02-15T03:56:09;22.33;;;10.10;;
16117;SDS011;8163;50.118;5.342;2023-02-15T03:58:36;22.88;;;10.13;;
16117;SDS011;8163;50.118;5.342;2023-02-15T04:01:22;16.08;;;9.23;;
16117;SDS011;8163;50.118;5.342;2023-02-15T04:04:25;17.17;;;9.52;;
16117;SDS011;8163;50.118;5.342;2023-02-15T04:06:58;22.88;;;10.23;;
16117;SDS011;8163;50.118;5.342;2023-02-15T04:09:25;16.63;;;9.90;;
16117;SDS011;8163;50.118;5.342;2023-02-15T04:12:10;16.90;;;10.13;;
16117;SDS011;8163;50.118;5.342;2023-02-15T04:14:38;16.58;;;10.10;;
16117;SDS011;8163;50.118;5.342;2023-02-15T04:17:23;19.52;;;10.32;;
16117;SDS011;8163;50.118;5.342;2023-02-15T04:19:49;18.63;;;9.95;;
16117;SDS011;8163;50.118;5.342;2023-02-15T04:22:35;16.15;;;10.05;;
16117;SDS011;8163;50.118;5.342;2023-02-15T04:25:19;17.02;;;9.38;;
16117;SDS011;8163;50.118;5.342;2023-02-15T04:27:47;15.45;;;9.93;;
16117;SDS011;8163;50.118;5.342;2023-02-15T04:30:16;19.23;;;9.27;;
16117;SDS011;8163;50.118;5.342;2023-02-15T04:32:45;17.17;;;9.82;;
16117;SDS011;8163;50.118;5.342;2023-02-15T04:35:12;14.35;;;9.20;;
16117;SDS011;8163;50.118;5.342;2023-02-15T04:37:41;21.02;;;10.70;;
16117;SDS011;8163;50.118;5.342;2023-02-15T04:40:10;17.13;;;10.05;;
16117;SDS011;8163;50.118;5.342;2023-02-15T04:42:39;20.38;;;10.68;;
16117;SDS011;8163;50.118;5.342;2023-02-15T04:45:06;16.95;;;9.98;;
16117;SDS011;8163;50.118;5.342;2023-02-15T04:47:34;19.98;;;10.27;;
16117;SDS011;8163;50.118;5.342;2023-02-15T04:50:02;19.85;;;11.70;;
16117;SDS011;8163;50.118;5.342;2023-02-15T04:52:31;17.02;;;10.35;;
16117;SDS011;8163;50.118;5.342;2023-02-15T04:55:00;17.35;;;11.00;;
16117;SDS011;8163;50.118;5.342;2023-02-15T04:57:27;21.95;;;11.25;;
16117;SDS011;8163;50.118;5.342;2023-02-15T04:59:54;23.20;;;11.15;;
16117;SDS011;8163;50.118;5.342;2023-02-15T05:02:23;22.65;;;10.93;;
16117;SDS011;8163;50.118;5.342;2023-02-15T05:04:53;20.42;;;11.25;;
16117;SDS011;8163;50.118;5.342;2023-02-15T05:07:20;23.55;;;10.98;;
16117;SDS011;8163;50.118;5.342;2023-02-15T05:09:50;19.98;;;10.90;;
16117;SDS011;8163;50.118;5.342;2023-02-15T05:12:19;19.73;;;11.00;;
16117;SDS011;8163;50.118;5.342;2023-02-15T05:14:46;19.90;;;10.50;;
16117;SDS011;8163;50.118;5.342;2023-02-15T05:17:13;20.50;;;10.07;;
16117;SDS011;8163;50.118;5.342;2023-02-15T05:19:40;16.33;;;10.32;;
16117;SDS011;8163;50.118;5.342;2023-02-15T05:22:06;18.70;;;9.63;;
16117;SDS011;8163;50.118;5.342;2023-02-15T05:24:34;17.73;;;10.43;;
16117;SDS011;8163;50.118;5.342;2023-02-15T05:27:21;18.83;;;10.40;;
16117;SDS011;8163;50.118;5.342;2023-02-15T05:30:05;15.60;;;9.30;;
16117;SDS011;8163;50.118;5.342;2023-02-15T05:32:38;24.75;;;10.32;;
16117;SDS011;8163;50.118;5.342;2023-02-15T05:35:06;16.33;;;8.68;;
16117;SDS011;8163;50.118;5.342;2023-02-15T05:37:34;14.35;;;8.43;;
16117;SDS011;8163;50.118;5.342;2023-02-15T05:40:02;18.33;;;9.82;;
16117;SDS011;8163;50.118;5.342;2023-02-15T05:42:30;15.80;;;8.50;;
16117;SDS011;8163;50.118;5.342;2023-02-15T05:44:57;18.17;;;8.95;;
16117;SDS011;8163;50.118;5.342;2023-02-15T05:47:24;14.50;;;8.23;;
16117;SDS011;8163;50.118;5.342;2023-02-15T05:49:52;17.05;;;8.68;;
16117;SDS011;8163;50.118;5.342;2023-02-15T05:52:19;12.45;;;7.85;;
16117;SDS011;8163;50.118;5.342;2023-02-15T05:54:47;14.77;;;8.57;;
16117;SDS011;8163;50.118;5.342;2023-02-15T05:57:15;12.65;;;7.93;;
16117;SDS011;8163;50.118;5.342;2023-02-15T05:59:44;15.02;;;8.65;;
16117;SDS011;8163;50.118;5.342;2023-02-15T06:02:11;12.77;;;6.97;;
16117;SDS011;8163;50.118;5.342;2023-02-15T06:04:39;13.00;;;8.00;;
16117;SDS011;8163;50.118;5.342;2023-02-15T06:07:06;14.68;;;8.10;;
16117;SDS011;8163;50.118;5.342;2023-02-15T06:09:33;14.60;;;8.65;;
16117;SDS011;8163;50.118;5.342;2023-02-15T06:12:01;11.30;;;7.88;;
16117;SDS011;8163;50.118;5.342;2023-02-15T06:14:31;13.05;;;7.53;;
16117;SDS011;8163;50.118;5.342;2023-02-15T06:17:00;14.93;;;7.03;;
16117;SDS011;8163;50.118;5.342;2023-02-15T06:19:27;17.63;;;7.97;;
16117;SDS011;8163;50.118;5.342;2023-02-15T06:21:55;12.73;;;6.80;;
16117;SDS011;8163;50.118;5.342;2023-02-15T06:24:22;10.93;;;6.78;;
16117;SDS011;8163;50.118;5.342;2023-02-15T06:26:50;15.05;;;7.38;;
16117;SDS011;8163;50.118;5.342;2023-02-15T06:29:17;11.40;;;7.43;;
16117;SDS011;8163;50.118;5.342;2023-02-15T06:31:50;10.57;;;6.68;;
16117;SDS011;8163;50.118;5.342;2023-02-15T06:34:18;10.20;;;5.60;;
16117;SDS011;8163;50.118;5.342;2023-02-15T06:36:45;12.57;;;6.72;;
16117;SDS011;8163;50.118;5.342;2023-02-15T06:39:12;10.93;;;6.22;;
16117;SDS011;8163;50.118;5.342;2023-02-15T06:41:40;8.07;;;5.65;;
16117;SDS011;8163;50.118;5.342;2023-02-15T06:44:07;10.80;;;5.95;;
16117;SDS011;8163;50.118;5.342;2023-02-15T06:46:35;9.75;;;7.03;;
16117;SDS011;8163;50.118;5.342;2023-02-15T06:49:02;8.45;;;5.70;;
16117;SDS011;8163;50.118;5.342;2023-02-15T06:51:31;11.88;;;6.22;;
16117;SDS011;8163;50.118;5.342;2023-02-15T06:53:59;8.75;;;5.40;;
16117;SDS011;8163;50.118;5.342;2023-02-15T06:56:26;13.32;;;5.95;;
16117;SDS011;8163;50.118;5.342;2023-02-15T06:58:53;9.98;;;6.78;;
16117;SDS011;8163;50.118;5.342;2023-02-15T07:01:19;12.05;;;6.13;;
16117;SDS011;8163;50.118;5.342;2023-02-15T07:03:46;8.90;;;6.38;;
16117;SDS011;8163;50.118;5.342;2023-02-15T07:06:14;8.55;;;5.70;;
16117;SDS011;8163;50.118;5.342;2023-02-15T07:08:42;11.20;;;6.57;;
16117;SDS011;8163;50.118;5.342;2023-02-15T07:11:10;10.82;;;6.95;;
16117;SDS011;8163;50.118;5.342;2023-02-15T07:13:54;12.00;;;6.47;;
16117;SDS011;8163;50.118;5.342;2023-02-15T07:16:21;8.63;;;6.13;;
16117;SDS011;8163;50.118;5.342;2023-02-15T07:18:48;11.65;;;7.00;;
16117;SDS011;8163;50.118;5.342;2023-02-15T07:21:15;15.43;;;7.93;;
16117;SDS011;8163;50.118;5.342;2023-02-15T07:23:44;12.20;;;7.40;;
16117;SDS011;8163;50.118;5.342;2023-02-15T07:26:11;14.02;;;8.65;;
16117;SDS011;8163;50.118;5.342;2023-02-15T07:28:38;27.20;;;20.05;;
16117;SDS011;8163;50.118;5.342;2023-02-15T07:31:05;16.13;;;8.75;;
16117;SDS011;8163;50.118;5.342;2023-02-15T07:33:32;12.85;;;8.90;;
16117;SDS011;8163;50.118;5.342;2023-02-15T07:36:01;14.52;;;12.07;;
16117;SDS011;8163;50.118;5.342;2023-02-15T07:38:30;12.63;;;10.52;;
16117;SDS011;8163;50.118;5.342;2023-02-15T07:41:00;14.52;;;11.57;;
16117;SDS011;8163;50.118;5.342;2023-02-15T07:43:28;15.43;;;11.43;;
16117;SDS011;8163;50.118;5.342;2023-02-15T07:45:58;16.08;;;12.70;;
16117;SDS011;8163;50.118;5.342;2023-02-15T07:48:25;15.93;;;13.30;;
16117;SDS011;8163;50.118;5.342;2023-02-15T07:50:52;15.43;;;12.02;;
16117;SDS011;8163;50.118;5.342;2023-02-15T07:53:19;15.07;;;11.82;;
16117;SDS011;8163;50.118;5.342;2023-02-15T07:55:46;15.25;;;12.52;;
16117;SDS011;8163;50.118;5.342;2023-02-15T07:58:14;16.00;;;13.25;;
16117;SDS011;8163;50.118;5.342;2023-02-15T08:00:41;16.58;;;13.48;;
16117;SDS011;8163;50.118;5.342;2023-02-15T08:03:26;13.93;;;12.15;;
16117;SDS011;8163;50.118;5.342;2023-02-15T08:05:55;16.65;;;13.00;;
16117;SDS011;8163;50.118;5.342;2023-02-15T08:08:23;18.15;;;14.65;;
16117;SDS011;8163;50.118;5.342;2023-02-15T08:11:02;16.58;;;13.10;;
16117;SDS011;8163;50.118;5.342;2023-02-15T08:13:50;15.45;;;12.80;;
16117;SDS011;8163;50.118;5.342;2023-02-15T08:16:23;14.63;;;13.07;;
16117;SDS011;8163;50.118;5.342;2023-02-15T08:18:54;16.15;;;13.88;;
16117;SDS011;8163;50.118;5.342;2023-02-15T08:21:21;18.30;;;13.77;;
16117;SDS011;8163;50.118;5.342;2023-02-15T08:23:49;17.05;;;13.23;;
16117;SDS011;8163;50.118;5.342;2023-02-15T08:26:17;16.95;;;14.82;;
16117;SDS011;8163;50.118;5.342;2023-02-15T08:28:44;18.58;;;13.85;;
16117;SDS011;8163;50.118;5.342;2023-02-15T08:31:13;18.83;;;13.93;;
16117;SDS011;8163;50.118;5.342;2023-02-15T08:33:41;16.95;;;13.57;;
16117;SDS011;8163;50.118;5.342;2023-02-15T08:36:11;16.30;;;13.73;;
16117;SDS011;8163;50.118;5.342;2023-02-15T08:38:40;16.42;;;13.43;;
16117;SDS011;8163;50.118;5.342;2023-02-15T08:41:11;16.73;;;15.00;;
16117;SDS011;8163;50.118;5.342;2023-02-15T08:43:41;16.42;;;14.43;;
16117;SDS011;8163;50.118;5.342;2023-02-15T08:46:09;17.00;;;14.00;;
16117;SDS011;8163;50.118;5.342;2023-02-15T08:48:39;15.50;;;13.13;;
16117;SDS011;8163;50.118;5.342;2023-02-15T08:51:07;15.05;;;12.98;;
16117;SDS011;8163;50.118;5.342;2023-02-15T08:53:37;17.50;;;14.90;;
16117;SDS011;8163;50.118;5.342;2023-02-15T08:56:04;13.90;;;12.25;;
16117;SDS011;8163;50.118;5.342;2023-02-15T08:58:32;31.67;;;20.65;;
16117;SDS011;8163;50.118;5.342;2023-02-15T09:00:59;14.95;;;12.30;;
16117;SDS011;8163;50.118;5.342;2023-02-15T09:03:29;14.45;;;12.30;;
16117;SDS011;8163;50.118;5.342;2023-02-15T09:05:59;14.68;;;12.98;;
16117;SDS011;8163;50.118;5.342;2023-02-15T09:08:27;14.45;;;13.02;;
16117;SDS011;8163;50.118;5.342;2023-02-15T09:11:03;15.35;;;12.00;;
16117;SDS011;8163;50.118;5.342;2023-02-15T09:13:32;15.60;;;12.95;;
16117;SDS011;8163;50.118;5.342;2023-02-15T09:16:00;15.23;;;13.05;;
16117;SDS011;8163;50.118;5.342;2023-02-15T09:18:27;13.98;;;12.57;;
16117;SDS011;8163;50.118;5.342;2023-02-15T09:20:56;16.10;;;12.60;;
16117;SDS011;8163;50.118;5.342;2023-02-15T09:23:24;15.45;;;13.10;;
16117;SDS011;8163;50.118;5.342;2023-02-15T09:25:51;18.17;;;13.77;;
16117;SDS011;8163;50.118;5.342;2023-02-15T09:28:18;14.90;;;13.40;;
16117;SDS011;8163;50.118;5.342;2023-02-15T09:30:45;13.75;;;12.35;;
16117;SDS011;8163;50.118;5.342;2023-02-15T09:33:12;15.50;;;13.77;;
16117;SDS011;8163;50.118;5.342;2023-02-15T09:35:39;15.05;;;13.27;;
16117;SDS011;8163;50.118;5.342;2023-02-15T09:38:06;14.43;;;12.93;;
16117;SDS011;8163;50.118;5.342;2023-02-15T09:40:38;14.85;;;13.43;;
16117;SDS011;8163;50.118;5.342;2023-02-15T09:43:20;15.98;;;13.75;;
16117;SDS011;8163;50.118;5.342;2023-02-15T09:46:04;14.35;;;12.98;;
16117;SDS011;8163;50.118;5.342;2023-02-15T09:48:43;13.63;;;12.23;;
16117;SDS011;8163;50.118;5.342;2023-02-15T09:51:19;16.58;;;13.98;;
16117;SDS011;8163;50.118;5.342;2023-02-15T09:54:06;13.70;;;12.30;;
16117;SDS011;8163;50.118;5.342;2023-02-15T09:56:45;14.98;;;13.55;;
16117;SDS011;8163;50.118;5.342;2023-02-15T09:59:19;15.43;;;13.93;;
16117;SDS011;8163;50.118;5.342;2023-02-15T10:01:56;15.88;;;14.32;;
16117;SDS011;8163;50.118;5.342;2023-02-15T10:04:34;16.10;;;14.50;;
16117;SDS011;8163;50.118;5.342;2023-02-15T10:07:15;17.85;;;15.13;;
16117;SDS011;8163;50.118;5.342;2023-02-15T10:09:54;17.77;;;15.98;;
16117;SDS011;8163;50.118;5.342;2023-02-15T10:12:35;17.10;;;15.50;;
16117;SDS011;8163;50.118;5.342;2023-02-15T10:15:23;18.42;;;16.58;;
16117;SDS011;8163;50.118;5.342;2023-02-15T10:18:05;18.98;;;16.02;;
16117;SDS011;8163;50.118;5.342;2023-02-15T10:20:58;18.83;;;16.92;;
16117;SDS011;8163;50.118;5.342;2023-02-15T10:23:47;19.00;;;17.10;;
16117;SDS011;8163;50.118;5.342;2023-02-15T10:26:41;18.27;;;16.33;;
16117;SDS011;8163;50.118;5.342;2023-02-15T10:29:12;18.38;;;16.48;;
16117;SDS011;8163;50.118;5.342;2023-02-15T10:31:47;19.23;;;17.08;;
16117;SDS011;8163;50.118;5.342;2023-02-15T10:34:16;19.02;;;17.02;;
16117;SDS011;8163;50.118;5.342;2023-02-15T10:36:55;20.38;;;16.30;;
16117;SDS011;8163;50.118;5.342;2023-02-15T10:39:33;17.52;;;15.85;;
16117;SDS011;8163;50.118;5.342;2023-02-15T10:42:14;17.55;;;15.80;;
16117;SDS011;8163;50.118;5.342;2023-02-15T10:44:58;18.33;;;16.63;;
16117;SDS011;8163;50.118;5.342;2023-02-15T10:50:33;17.33;;;15.63;;
16117;SDS011;8163;50.118;5.342;2023-02-15T10:53:14;25.88;;;15.23;;
16117;SDS011;8163;50.118;5.342;2023-02-15T10:56:01;15.75;;;14.10;;
16117;SDS011;8163;50.118;5.342;2023-02-15T10:58:38;17.05;;;15.10;;
16117;SDS011;8163;50.118;5.342;2023-02-15T11:01:18;17.40;;;15.60;;
16117;SDS011;8163;50.118;5.342;2023-02-15T11:03:52;20.00;;;15.98;;
16117;SDS011;8163;50.118;5.342;2023-02-15T11:06:34;19.45;;;15.55;;
16117;SDS011;8163;50.118;5.342;2023-02-15T11:09:03;15.88;;;14.27;;
16117;SDS011;8163;50.118;5.342;2023-02-15T11:11:36;16.83;;;15.18;;
16117;SDS011;8163;50.118;5.342;2023-02-15T11:14:09;17.65;;;15.40;;
16117;SDS011;8163;50.118;5.342;2023-02-15T11:16:42;16.35;;;14.63;;
16117;SDS011;8163;50.118;5.342;2023-02-15T11:19:13;17.10;;;15.38;;
16117;SDS011;8163;50.118;5.342;2023-02-15T11:21:48;16.77;;;15.05;;
16117;SDS011;8163;50.118;5.342;2023-02-15T11:24:18;18.67;;;15.18;;
16117;SDS011;8163;50.118;5.342;2023-02-15T11:26:47;17.55;;;15.50;;
16117;SDS011;8163;50.118;5.342;2023-02-15T11:29:18;17.92;;;16.13;;
16117;SDS011;8163;50.118;5.342;2023-02-15T11:31:54;17.40;;;15.60;;
16117;SDS011;8163;50.118;5.342;2023-02-15T11:34:25;17.42;;;15.57;;
16117;SDS011;8163;50.118;5.342;2023-02-15T11:36:58;16.30;;;14.15;;
16117;SDS011;8163;50.118;5.342;2023-02-15T11:39:28;16.52;;;14.93;;
16117;SDS011;8163;50.118;5.342;2023-02-15T11:41:57;15.63;;;14.13;;
16117;SDS011;8163;50.118;5.342;2023-02-15T11:44:30;17.15;;;14.48;;
16117;SDS011;8163;50.118;5.342;2023-02-15T11:47:02;18.02;;;14.25;;
16117;SDS011;8163;50.118;5.342;2023-02-15T11:49:30;17.48;;;15.15;;
16117;SDS011;8163;50.118;5.342;2023-02-15T11:51:59;17.80;;;15.15;;
16117;SDS011;8163;50.118;5.342;2023-02-15T11:54:31;16.08;;;14.43;;
16117;SDS011;8163;50.118;5.342;2023-02-15T11:57:03;18.17;;;14.77;;
16117;SDS011;8163;50.118;5.342;2023-02-15T11:59:38;17.35;;;15.38;;
16117;SDS011;8163;50.118;5.342;2023-02-15T12:02:14;18.73;;;14.57;;
16117;SDS011;8163;50.118;5.342;2023-02-15T12:04:43;18.75;;;15.68;;
16117;SDS011;8163;50.118;5.342;2023-02-15T12:07:17;18.48;;;14.57;;
16117;SDS011;8163;50.118;5.342;2023-02-15T12:09:51;19.85;;;15.63;;
16117;SDS011;8163;50.118;5.342;2023-02-15T12:12:24;16.55;;;14.82;;
16117;SDS011;8163;50.118;5.342;2023-02-15T12:14:54;17.92;;;15.45;;
16117;SDS011;8163;50.118;5.342;2023-02-15T12:17:24;17.23;;;15.43;;
16117;SDS011;8163;50.118;5.342;2023-02-15T12:19:53;16.33;;;14.70;;
16117;SDS011;8163;50.118;5.342;2023-02-15T12:22:23;18.13;;;14.73;;
16117;SDS011;8163;50.118;5.342;2023-02-15T12:24:52;20.17;;;15.05;;
16117;SDS011;8163;50.118;5.342;2023-02-15T12:27:23;19.40;;;16.83;;
16117;SDS011;8163;50.118;5.342;2023-02-15T12:29:53;19.10;;;15.40;;
16117;SDS011;8163;50.118;5.342;2023-02-15T12:32:25;19.92;;;16.42;;
16117;SDS011;8163;50.118;5.342;2023-02-15T12:34:55;18.08;;;16.05;;
16117;SDS011;8163;50.118;5.342;2023-02-15T12:37:27;17.27;;;15.52;;
16117;SDS011;8163;50.118;5.342;2023-02-15T12:39:57;16.15;;;14.40;;
16117;SDS011;8163;50.118;5.342;2023-02-15T12:42:26;20.27;;;15.32;;
16117;SDS011;8163;50.118;5.342;2023-02-15T12:44:58;18.80;;;14.85;;
16117;SDS011;8163;50.118;5.342;2023-02-15T12:47:27;18.40;;;14.93;;
16117;SDS011;8163;50.118;5.342;2023-02-15T12:50:04;17.00;;;14.18;;
16117;SDS011;8163;50.118;5.342;2023-02-15T12:52:36;15.80;;;14.15;;
16117;SDS011;8163;50.118;5.342;2023-02-15T12:55:09;18.35;;;15.43;;
16117;SDS011;8163;50.118;5.342;2023-02-15T12:57:44;17.40;;;14.68;;
16117;SDS011;8163;50.118;5.342;2023-02-15T13:00:25;19.65;;;14.57;;
16117;SDS011;8163;50.118;5.342;2023-02-15T13:02:58;17.50;;;14.30;;
16117;SDS011;8163;50.118;5.342;2023-02-15T13:05:29;17.58;;;15.55;;
16117;SDS011;8163;50.118;5.342;2023-02-15T13:08:00;17.88;;;14.13;;
16117;SDS011;8163;50.118;5.342;2023-02-15T13:10:31;18.10;;;14.68;;
16117;SDS011;8163;50.118;5.342;2023-02-15T13:13:02;17.20;;;14.43;;
16117;SDS011;8163;50.118;5.342;2023-02-15T13:15:37;15.88;;;13.40;;
16117;SDS011;8163;50.118;5.342;2023-02-15T13:18:13;16.17;;;12.88;;
16117;SDS011;8163;50.118;5.342;2023-02-15T13:20:43;19.48;;;13.27;;
16117;SDS011;8163;50.118;5.342;2023-02-15T13:23:17;18.48;;;13.65;;
16117;SDS011;8163;50.118;5.342;2023-02-15T13:25:50;17.20;;;13.75;;
16117;SDS011;8163;50.118;5.342;2023-02-15T13:28:18;17.48;;;13.02;;
16117;SDS011;8163;50.118;5.342;2023-02-15T13:30:48;17.02;;;12.80;;
16117;SDS011;8163;50.118;5.342;2023-02-15T13:33:19;21.17;;;13.48;;
16117;SDS011;8163;50.118;5.342;2023-02-15T13:35:55;19.67;;;13.73;;
16117;SDS011;8163;50.118;5.342;2023-02-15T13:41:16;19.33;;;13.10;;
16117;SDS011;8163;50.118;5.342;2023-02-15T13:43:52;20.05;;;13.50;;
16117;SDS011;8163;50.118;5.342;2023-02-15T13:46:31;18.15;;;12.88;;
16117;SDS011;8163;50.118;5.342;2023-02-15T13:49:14;17.80;;;12.10;;
16117;SDS011;8163;50.118;5.342;2023-02-15T13:51:55;20.55;;;13.10;;
16117;SDS011;8163;50.118;5.342;2023-02-15T14:36:18;23.05;;;14.32;;
16117;SDS011;8163;50.118;5.342;2023-02-15T14:38:51;20.40;;;12.52;;
16117;SDS011;8163;50.118;5.342;2023-02-15T14:41:29;17.58;;;12.07;;
16117;SDS011;8163;50.118;5.342;2023-02-15T14:44:08;17.50;;;11.50;;
16117;SDS011;8163;50.118;5.342;2023-02-15T14:46:42;24.05;;;12.80;;
16117;SDS011;8163;50.118;5.342;2023-02-15T14:49:21;19.67;;;13.15;;
16117;SDS011;8163;50.118;5.342;2023-02-15T14:51:57;17.70;;;12.10;;
16117;SDS011;8163;50.118;5.342;2023-02-15T14:57:27;20.17;;;13.13;;
16117;SDS011;8163;50.118;5.342;2023-02-15T15:02:59;16.77;;;11.35;;
16117;SDS011;8163;50.118;5.342;2023-02-15T15:05:29;18.98;;;12.45;;
16117;SDS011;8163;50.118;5.342;2023-02-15T15:08:03;21.63;;;13.60;;
16117;SDS011;8163;50.118;5.342;2023-02-15T15:16:30;20.98;;;12.30;;
16117;SDS011;8163;50.118;5.342;2023-02-15T15:22:30;21.48;;;12.40;;
16117;SDS011;8163;50.118;5.342;2023-02-15T15:24:59;17.25;;;12.30;;
16117;SDS011;8163;50.118;5.342;2023-02-15T15:27:47;19.52;;;12.07;;
16117;SDS011;8163;50.118;5.342;2023-02-15T15:36:37;22.20;;;13.15;;
16117;SDS011;8163;50.118;5.342;2023-02-15T15:39:32;22.48;;;12.57;;
16117;SDS011;8163;50.118;5.342;2023-02-15T15:42:31;20.20;;;12.25;;
16117;SDS011;8163;50.118;5.342;2023-02-15T15:48:19;20.33;;;12.55;;
16117;SDS011;8163;50.118;5.342;2023-02-15T15:51:00;25.38;;;15.35;;
16117;SDS011;8163;50.118;5.342;2023-02-15T15:53:32;22.35;;;12.88;;
16117;SDS011;8163;50.118;5.342;2023-02-15T15:56:06;20.80;;;12.48;;
16117;SDS011;8163;50.118;5.342;2023-02-15T15:58:41;17.83;;;12.30;;
16117;SDS011;8163;50.118;5.342;2023-02-15T16:01:16;19.10;;;13.02;;
16117;SDS011;8163;50.118;5.342;2023-02-15T16:03:56;20.20;;;12.25;;
16117;SDS011;8163;50.118;5.342;2023-02-15T16:06:30;22.02;;;13.48;;
16117;SDS011;8163;50.118;5.342;2023-02-15T16:09:09;19.60;;;12.95;;
16117;SDS011;8163;50.118;5.342;2023-02-15T16:11:42;22.88;;;12.63;;
16117;SDS011;8163;50.118;5.342;2023-02-15T16:14:15;19.90;;;13.18;;
16117;SDS011;8163;50.118;5.342;2023-02-15T16:16:48;24.73;;;13.63;;
16117;SDS011;8163;50.118;5.342;2023-02-15T16:19:24;22.05;;;13.85;;
16117;SDS011;8163;50.118;5.342;2023-02-15T16:22:00;23.15;;;12.82;;
16117;SDS011;8163;50.118;5.342;2023-02-15T16:24:37;20.92;;;12.35;;
16117;SDS011;8163;50.118;5.342;2023-02-15T16:27:22;19.63;;;13.73;;
16117;SDS011;8163;50.118;5.342;2023-02-15T16:32:52;17.52;;;12.38;;
16117;SDS011;8163;50.118;5.342;2023-02-15T16:35:21;24.58;;;14.57;;
16117;SDS011;8163;50.118;5.342;2023-02-15T16:37:48;18.73;;;12.85;;